Time;durP1;ratioP1;P1;durP2;ratioP2;P2;SDS_P1;SDS_P2;PMS_P1;PMS_P2;Temp;Humidity;BMP_temperature;BMP_pressure;BME280_temperature;BME280_humidity;BME280_pressure;Samples;Min_cycle;Max_cycle;Signal;HPM_P1;HPM_P2
2022/01/19 00:01:15;;;;;;;9.83;3.80;;;-0.90;99.90;;;;;;5030757;28;20033;-74
2022/01/19 00:03:41;;;;;;;10.77;3.50;;;-0.90;99.90;;;;;;5032261;28;20057;-74
2022/01/19 00:06:07;;;;;;;10.67;3.80;;;-1.00;99.90;;;;;;5032230;28;20037;-74
2022/01/19 00:08:33;;;;;;;9.07;3.57;;;-1.00;99.90;;;;;;5032282;28;20033;-74
2022/01/19 00:10:58;;;;;;;10.10;3.60;;;-1.10;99.90;;;;;;5032259;28;20068;-74
2022/01/19 00:13:25;;;;;;;10.47;3.80;;;-1.10;99.90;;;;;;5032321;28;20045;-74
2022/01/19 00:15:52;;;;;;;10.60;4.40;;;-1.10;99.90;;;;;;5032242;28;20030;-74
2022/01/19 00:18:22;;;;;;;9.53;3.83;;;-1.20;99.90;;;;;;5032470;28;20463;-74
2022/01/19 00:20:49;;;;;;;13.40;4.37;;;-1.20;99.90;;;;;;5032209;28;20032;-74
2022/01/19 00:23:16;;;;;;;13.13;4.53;;;-1.20;99.90;;;;;;5032103;28;20071;-74
2022/01/19 00:25:42;;;;;;;13.00;5.67;;;-1.20;99.90;;;;;;5032020;28;20020;-74
2022/01/19 00:28:08;;;;;;;13.77;5.60;;;-1.10;99.90;;;;;;5032169;28;20021;-74
2022/01/19 00:30:34;;;;;;;15.93;5.97;;;-1.10;99.90;;;;;;5032046;28;20033;-74
2022/01/19 00:33:00;;;;;;;16.47;4.87;;;-1.00;99.90;;;;;;5032283;28;20545;-74
2022/01/19 00:35:26;;;;;;;10.77;4.20;;;-1.00;99.90;;;;;;5030827;28;20042;-74
2022/01/19 00:37:51;;;;;;;10.17;3.43;;;-1.00;99.90;;;;;;5032302;28;20105;-74
2022/01/19 00:40:17;;;;;;;10.60;3.70;;;-1.00;99.90;;;;;;5030747;28;20127;-74
2022/01/19 00:42:44;;;;;;;9.47;3.83;;;-0.90;99.90;;;;;;5032093;28;20029;-74
2022/01/19 00:45:10;;;;;;;10.17;4.23;;;-0.80;99.90;;;;;;5032118;28;20482;-75
2022/01/19 00:47:36;;;;;;;14.27;3.43;;;-0.80;99.90;;;;;;5032091;28;20022;-75
2022/01/19 00:50:04;;;;;;;8.43;3.37;;;-0.70;99.90;;;;;;5032085;28;20028;-75
2022/01/19 00:52:30;;;;;;;22.87;4.67;;;-0.70;99.90;;;;;;5032181;28;20018;-75
2022/01/19 00:54:56;;;;;;;9.43;3.40;;;-0.60;99.90;;;;;;5032125;28;20033;-75
2022/01/19 00:57:21;;;;;;;10.97;3.37;;;-0.60;99.90;;;;;;5031952;28;20028;-74
2022/01/19 00:59:47;;;;;;;9.07;3.80;;;-0.50;99.90;;;;;;5032162;28;20029;-75
2022/01/19 01:02:12;;;;;;;10.77;3.80;;;-0.50;99.90;;;;;;5031791;28;20033;-75
2022/01/19 01:04:38;;;;;;;10.43;3.53;;;-0.60;99.90;;;;;;5032716;28;20029;-74
2022/01/19 01:07:04;;;;;;;8.33;3.10;;;-0.60;99.90;;;;;;5035416;28;20111;-75
2022/01/19 01:09:29;;;;;;;9.93;3.40;;;-0.50;99.90;;;;;;5035296;28;20021;-74
2022/01/19 01:12:00;;;;;;;18.63;3.17;;;-0.40;99.90;;;;;;5035566;28;20026;-75
2022/01/19 01:19:59;;;;;;;8.23;3.47;;;-0.30;99.90;;;;;;5034149;28;20041;-74
2022/01/19 01:22:24;;;;;;;12.73;3.53;;;-0.30;99.90;;;;;;5035182;28;20467;-75
2022/01/19 01:24:50;;;;;;;9.50;3.30;;;-0.40;99.90;;;;;;5035230;28;20070;-75
2022/01/19 01:27:16;;;;;;;9.53;3.30;;;-0.40;99.90;;;;;;5035298;28;20029;-75
2022/01/19 01:29:41;;;;;;;12.13;3.70;;;-0.50;99.90;;;;;;5035090;28;20022;-75
2022/01/19 01:32:08;;;;;;;11.87;4.17;;;-0.50;99.90;;;;;;5035131;28;20375;-75
2022/01/19 01:34:34;;;;;;;11.23;3.73;;;-0.50;99.90;;;;;;5035193;28;20052;-75
2022/01/19 01:37:00;;;;;;;11.53;3.33;;;-0.40;99.90;;;;;;5034880;28;20029;-75
2022/01/19 01:39:25;;;;;;;13.13;4.03;;;-0.40;99.90;;;;;;5034896;28;20142;-75
2022/01/19 01:41:51;;;;;;;13.07;4.77;;;-0.60;99.90;;;;;;5034953;28;20092;-75
2022/01/19 01:44:17;;;;;;;12.93;4.17;;;-0.70;99.90;;;;;;5034911;28;20029;-75
2022/01/19 01:46:47;;;;;;;12.43;4.23;;;-0.70;99.90;;;;;;5035012;28;20025;-75
2022/01/19 01:49:25;;;;;;;9.77;4.07;;;-0.80;99.90;;;;;;5034688;28;20101;-75
2022/01/19 01:54:35;;;;;;;11.67;3.30;;;-0.80;99.90;;;;;;5034764;28;20406;-75
2022/01/19 01:57:01;;;;;;;10.63;3.80;;;-0.80;99.90;;;;;;5034433;28;20021;-73
2022/01/19 01:59:26;;;;;;;14.20;3.60;;;-0.80;99.90;;;;;;5034659;28;20030;-74
2022/01/19 02:01:52;;;;;;;10.33;3.67;;;-0.80;99.90;;;;;;5034535;28;20391;-73
2022/01/19 02:04:22;;;;;;;13.03;3.03;;;-0.60;99.90;;;;;;5033305;28;20359;-75
2022/01/19 02:09:36;;;;;;;10.63;3.37;;;-0.70;99.90;;;;;;5034529;28;20036;-75
2022/01/19 02:23:06;;;;;;;9.00;3.60;;;-0.60;99.90;;;;;;5034004;28;20036;-76
2022/01/19 02:25:37;;;;;;;8.60;3.67;;;-0.70;99.90;;;;;;5034118;28;20029;-76
2022/01/19 02:41:34;;;;;;;9.17;3.47;;;-1.20;99.90;;;;;;5034099;28;20095;-75
2022/01/19 02:43:59;;;;;;;14.03;3.80;;;-1.20;99.90;;;;;;5033966;28;20037;-75
2022/01/19 02:49:16;;;;;;;12.10;4.32;;;-1.30;99.90;;;;;;5033966;28;20028;-74
2022/01/19 02:51:47;;;;;;;11.67;4.27;;;-1.40;99.90;;;;;;5033557;28;20025;-75
2022/01/19 02:54:17;;;;;;;14.40;3.90;;;-1.50;99.90;;;;;;5033563;28;20040;-74
2022/01/19 02:56:47;;;;;;;15.20;4.10;;;-1.50;99.90;;;;;;5033499;28;20029;-74
2022/01/19 02:59:21;;;;;;;9.77;3.90;;;-1.60;99.90;;;;;;5032230;28;20052;-74
2022/01/19 03:09:42;;;;;;;14.47;3.93;;;-1.80;99.90;;;;;;5033612;28;20037;-77
2022/01/19 03:12:09;;;;;;;10.40;4.33;;;-1.90;99.90;;;;;;5033069;28;20032;-75
2022/01/19 03:14:35;;;;;;;14.17;3.83;;;-1.90;99.90;;;;;;5031810;28;20155;-74
2022/01/19 03:17:01;;;;;;;10.63;4.07;;;-2.00;99.90;;;;;;5033025;28;20040;-75
2022/01/19 03:19:29;;;;;;;8.63;4.00;;;-2.00;99.90;;;;;;5033238;28;20041;-75
2022/01/19 03:21:54;;;;;;;16.43;3.83;;;-2.10;99.90;;;;;;5033034;28;20017;-74
2022/01/19 03:24:20;;;;;;;14.30;4.90;;;-2.10;99.90;;;;;;5033008;28;20029;-74
2022/01/19 03:26:46;;;;;;;8.03;4.00;;;-2.10;99.90;;;;;;5033093;28;20466;-75
2022/01/19 03:29:12;;;;;;;10.93;4.03;;;-2.20;99.90;;;;;;5031956;28;20032;-74
2022/01/19 03:31:38;;;;;;;11.80;3.77;;;-2.20;99.90;;;;;;5032898;28;20108;-75
2022/01/19 03:34:05;;;;;;;10.63;4.10;;;-2.20;99.90;;;;;;5032620;28;20041;-75
2022/01/19 03:36:31;;;;;;;12.67;4.07;;;-2.30;99.90;;;;;;5032583;28;20090;-75
2022/01/19 03:38:57;;;;;;;12.20;4.37;;;-2.30;99.90;;;;;;5032833;28;20037;-75
2022/01/19 03:41:22;;;;;;;13.37;4.33;;;-2.30;99.90;;;;;;5032810;28;20124;-75
2022/01/19 03:43:48;;;;;;;9.93;4.43;;;-2.40;99.90;;;;;;5032773;28;20036;-75
2022/01/19 03:46:15;;;;;;;12.23;4.53;;;-2.40;99.90;;;;;;5031298;28;20026;-75
2022/01/19 03:51:18;;;;;;;12.30;4.60;;;-2.40;99.90;;;;;;5032775;28;20032;-76
2022/01/19 03:53:43;;;;;;;9.33;3.20;;;-2.40;99.90;;;;;;5031630;28;20018;-74
2022/01/19 03:56:09;;;;;;;11.67;4.43;;;-2.50;99.90;;;;;;5032335;28;20025;-75
2022/01/19 03:58:36;;;;;;;9.77;4.13;;;-2.40;99.90;;;;;;5032589;28;20383;-75
2022/01/19 04:01:03;;;;;;;13.47;4.33;;;-2.50;99.90;;;;;;5031379;28;20097;-75
2022/01/19 04:04:05;;;;;;;13.53;4.60;;;-2.50;99.90;;;;;;5032691;28;20564;-75
2022/01/19 04:06:51;;;;;;;15.10;4.90;;;-2.50;99.90;;;;;;5032455;28;20172;-75
2022/01/19 04:09:14;;;;;;;9.60;4.55;;;-2.40;99.90;;;;;;5032388;28;20024;-75
2022/01/19 04:11:40;;;;;;;11.17;5.40;;;-2.40;99.90;;;;;;5032471;28;20418;-76
2022/01/19 04:16:32;;;;;;;11.17;4.27;;;-2.30;99.90;;;;;;5032075;28;20105;-76
2022/01/19 04:19:22;;;;;;;13.37;4.70;;;-2.20;99.90;;;;;;5032525;28;20021;-76
2022/01/19 04:21:43;;;;;;;10.17;4.30;;;-2.20;99.90;;;;;;5032238;28;20065;-74
2022/01/19 04:24:09;;;;;;;10.37;4.80;;;-2.10;99.90;;;;;;5032464;28;20053;-74
2022/01/19 04:26:34;;;;;;;10.60;4.80;;;-2.00;99.90;;;;;;5030888;28;20531;-75
2022/01/19 04:29:00;;;;;;;14.90;4.43;;;-1.90;99.90;;;;;;5032193;28;20022;-75
2022/01/19 04:31:26;;;;;;;17.20;6.07;;;-1.90;99.90;;;;;;5030991;28;20482;-75
2022/01/19 04:33:51;;;;;;;17.07;5.17;;;-1.80;99.90;;;;;;5032005;28;20389;-75
2022/01/19 04:39:23;;;;;;;19.98;6.28;;;-1.80;99.90;;;;;;5032431;28;20028;-75
2022/01/19 04:44:04;;;;;;;107.23;73.37;;;-1.70;99.90;;;;;;5035939;28;20052;-75
2022/01/19 05:06:48;;;;;;;13.57;5.95;;;-2.00;99.90;;;;;;5035748;28;20079;-75
2022/01/19 05:14:35;;;;;;;17.00;6.13;;;-2.10;99.90;;;;;;5034864;28;20103;-74
2022/01/19 05:17:01;;;;;;;15.23;6.30;;;-2.20;99.90;;;;;;5036077;28;20052;-75
2022/01/19 05:19:26;;;;;;;19.67;6.60;;;-2.20;99.90;;;;;;5035735;28;20044;-75
2022/01/19 05:21:52;;;;;;;17.50;6.87;;;-2.20;99.90;;;;;;5035963;28;20033;-75
2022/01/19 05:24:17;;;;;;;16.43;6.40;;;-2.20;99.90;;;;;;5035698;28;20029;-75
2022/01/19 05:26:44;;;;;;;14.23;5.97;;;-2.10;99.90;;;;;;5035581;28;20033;-75
2022/01/19 05:29:10;;;;;;;16.80;6.20;;;-2.10;99.90;;;;;;5035675;28;20018;-75
2022/01/19 05:31:36;;;;;;;13.33;6.63;;;-2.10;99.90;;;;;;5035985;28;20075;-75
2022/01/19 05:34:01;;;;;;;13.90;6.47;;;-2.00;99.90;;;;;;5035320;28;20474;-75
2022/01/19 05:36:27;;;;;;;16.67;6.73;;;-2.00;99.90;;;;;;5035371;28;20029;-75
2022/01/19 05:38:52;;;;;;;13.27;6.47;;;-1.90;99.90;;;;;;5035636;28;20053;-75
2022/01/19 05:41:18;;;;;;;15.70;7.30;;;-1.90;99.90;;;;;;5035764;28;20025;-75
2022/01/19 05:43:43;;;;;;;17.83;7.30;;;-1.80;99.90;;;;;;5035172;28;20301;-75
2022/01/19 05:46:09;;;;;;;12.53;6.30;;;-1.80;99.90;;;;;;5035163;28;20108;-75
2022/01/19 05:48:35;;;;;;;13.40;6.43;;;-1.80;99.90;;;;;;5033766;28;20097;-75
2022/01/19 05:51:00;;;;;;;14.73;6.30;;;-1.70;99.90;;;;;;5034211;28;20447;-75
2022/01/19 05:53:26;;;;;;;12.87;6.67;;;-1.70;99.90;;;;;;5035026;28;20176;-75
2022/01/19 05:55:51;;;;;;;15.50;6.83;;;-1.60;99.90;;;;;;5035116;28;20072;-75
2022/01/19 05:58:17;;;;;;;15.50;6.30;;;-1.60;99.90;;;;;;5034655;28;20112;-81
2022/01/19 06:00:42;;;;;;;17.83;6.73;;;-1.50;99.90;;;;;;5027443;28;20028;-81
2022/01/19 06:03:08;;;;;;;18.07;6.93;;;-1.50;99.90;;;;;;5031368;28;20039;-81
2022/01/19 06:05:34;;;;;;;13.63;6.33;;;-1.50;99.90;;;;;;5027735;28;20060;-81
2022/01/19 06:08:18;;;;;;;14.53;6.37;;;-1.40;99.90;;;;;;5031204;28;20386;-81
2022/01/19 06:10:45;;;;;;;14.70;6.97;;;-1.40;99.90;;;;;;5028738;28;20026;-82
2022/01/19 06:13:19;;;;;;;14.50;6.43;;;-1.40;99.90;;;;;;5029733;28;20021;-82
2022/01/19 06:15:46;;;;;;;12.95;6.45;;;-1.40;99.90;;;;;;5027480;28;20051;-82
2022/01/19 06:18:12;;;;;;;15.03;7.47;;;-1.30;99.90;;;;;;5029051;28;20041;-82
2022/01/19 06:20:39;;;;;;;18.03;7.40;;;-1.30;99.90;;;;;;5027157;28;20112;-82
2022/01/19 06:23:05;;;;;;;16.17;7.20;;;-1.30;99.90;;;;;;5022228;28;20110;-81
2022/01/19 06:25:31;;;;;;;18.23;7.13;;;-1.30;99.90;;;;;;5024877;28;20030;-81
2022/01/19 06:27:57;;;;;;;12.93;6.50;;;-1.20;99.90;;;;;;5018841;28;20439;-81
2022/01/19 06:30:23;;;;;;;17.70;7.17;;;-1.20;99.90;;;;;;5020817;28;20030;-81
2022/01/19 06:32:48;;;;;;;14.33;7.20;;;-1.20;99.90;;;;;;5014742;28;20439;-81
2022/01/19 06:35:14;;;;;;;17.03;9.47;;;-1.20;99.90;;;;;;5026875;28;20046;-81
2022/01/19 06:37:40;;;;;;;18.27;7.97;;;-1.20;99.90;;;;;;5023896;28;20025;-82
2022/01/19 06:40:08;;;;;;;16.10;8.70;;;-1.10;99.90;;;;;;5020338;28;20017;-81
2022/01/19 06:42:33;;;;;;;20.90;9.87;;;-1.10;99.90;;;;;;5022438;28;20096;-81
2022/01/19 06:44:59;;;;;;;21.93;10.33;;;-1.10;99.90;;;;;;5030750;28;20033;-81
2022/01/19 06:47:25;;;;;;;24.87;10.10;;;-1.10;99.90;;;;;;5031626;28;20119;-82
2022/01/19 06:49:50;;;;;;;22.30;10.10;;;-1.10;99.90;;;;;;5031266;28;20099;-82
2022/01/19 06:52:16;;;;;;;22.73;10.33;;;-1.10;99.90;;;;;;5020135;28;20026;-83
2022/01/19 06:54:42;;;;;;;24.93;11.87;;;-1.00;99.90;;;;;;5011926;28;20379;-80
2022/01/19 06:57:07;;;;;;;21.80;12.23;;;-1.00;99.90;;;;;;5014268;28;20049;-81
2022/01/19 06:59:33;;;;;;;25.70;13.43;;;-1.00;99.90;;;;;;5022735;28;20026;-80
2022/01/19 07:01:58;;;;;;;20.27;12.97;;;-0.90;99.90;;;;;;5016108;28;20026;-81
2022/01/19 07:04:24;;;;;;;25.87;13.83;;;-0.90;99.90;;;;;;5024999;28;20049;-80
2022/01/19 07:06:50;;;;;;;23.73;14.47;;;-0.80;99.90;;;;;;5027922;28;20443;-81
2022/01/19 07:09:15;;;;;;;25.57;14.27;;;-0.80;99.90;;;;;;5028141;28;20501;-81
2022/01/19 07:11:41;;;;;;;20.70;13.80;;;-0.80;99.90;;;;;;5027711;28;20141;-81
2022/01/19 07:14:08;;;;;;;27.70;14.37;;;-0.80;99.90;;;;;;5027773;28;20433;-81
2022/01/19 07:16:34;;;;;;;28.83;15.13;;;-0.70;99.90;;;;;;5027781;28;20033;-81
2022/01/19 07:19:00;;;;;;;28.23;16.33;;;-0.70;99.90;;;;;;5028046;28;20099;-81
2022/01/19 07:21:26;;;;;;;27.73;16.70;;;-0.70;99.90;;;;;;5027362;28;20033;-80
2022/01/19 07:23:51;;;;;;;28.70;17.50;;;-0.60;99.90;;;;;;5026571;28;20144;-81
2022/01/19 07:26:17;;;;;;;29.73;18.90;;;-0.60;99.90;;;;;;5027197;28;20104;-88
2022/01/19 07:28:43;;;;;;;29.60;17.63;;;-0.50;99.90;;;;;;5026952;28;20049;-82
2022/01/19 07:31:08;;;;;;;33.07;18.10;;;-0.50;99.90;;;;;;5017514;28;20036;-83
2022/01/19 07:33:34;;;;;;;29.30;17.03;;;-0.50;99.90;;;;;;5024329;28;20632;-82
2022/01/19 07:35:59;;;;;;;28.30;17.43;;;-0.50;99.90;;;;;;5024660;28;20048;-82
2022/01/19 07:38:26;;;;;;;31.17;18.23;;;-0.40;99.90;;;;;;5020661;28;20386;-81
2022/01/19 07:40:52;;;;;;;32.83;19.20;;;-0.40;99.90;;;;;;5023573;28;20029;-82
2022/01/19 07:43:18;;;;;;;32.17;19.17;;;-0.30;99.90;;;;;;5021602;28;20036;-82
2022/01/19 07:45:44;;;;;;;31.50;20.50;;;-0.30;99.90;;;;;;5026857;28;20557;-82
2022/01/19 07:48:10;;;;;;;30.43;19.63;;;-0.20;99.90;;;;;;5022466;28;20501;-82
2022/01/19 07:50:36;;;;;;;32.57;19.93;;;-0.20;99.90;;;;;;5018066;28;20098;-82
2022/01/19 07:53:02;;;;;;;31.20;19.83;;;-0.10;99.90;;;;;;5019285;28;20455;-83
2022/01/19 07:55:28;;;;;;;30.20;19.93;;;-0.10;99.90;;;;;;5015193;28;20061;-79
2022/01/19 07:57:54;;;;;;;32.60;19.63;;;0.00;99.90;;;;;;5016379;28;20065;-79
2022/01/19 08:00:19;;;;;;;30.27;19.77;;;0.00;99.90;;;;;;5015693;28;20030;-79
2022/01/19 08:02:46;;;;;;;29.47;18.30;;;0.10;99.90;;;;;;5019718;28;20033;-79
2022/01/19 08:05:11;;;;;;;32.37;19.33;;;0.10;99.90;;;;;;5023796;28;20041;-79
2022/01/19 08:07:37;;;;;;;31.10;19.73;;;0.20;99.90;;;;;;5020131;28;20046;-79
2022/01/19 08:10:05;;;;;;;28.83;18.03;;;0.20;99.90;;;;;;5021739;28;20030;-79
2022/01/19 08:12:31;;;;;;;29.43;19.20;;;0.20;99.90;;;;;;5017378;28;20018;-79
2022/01/19 08:14:58;;;;;;;29.23;20.13;;;0.30;99.90;;;;;;5018491;28;20022;-79
2022/01/19 08:17:26;;;;;;;31.87;20.77;;;0.30;99.90;;;;;;5024893;28;20113;-79
2022/01/19 08:20:10;;;;;;;29.97;19.23;;;0.30;99.90;;;;;;5028522;28;20040;-78
2022/01/19 08:22:36;;;;;;;28.27;19.93;;;0.40;99.90;;;;;;5050160;22;20369;-83
2022/01/19 08:25:02;;;;;;;27.00;18.57;;;0.50;99.90;;;;;;5032605;28;20033;-74
2022/01/19 08:27:28;;;;;;;28.30;19.37;;;0.50;99.90;;;;;;5022041;28;20029;-83
2022/01/19 08:29:53;;;;;;;28.73;18.93;;;0.50;99.90;;;;;;5023022;28;20030;-83
2022/01/19 08:32:19;;;;;;;28.23;18.87;;;0.50;99.90;;;;;;5025018;28;20044;-74
2022/01/19 08:34:44;;;;;;;29.33;19.57;;;0.50;99.90;;;;;;5024795;28;20029;-74
2022/01/19 08:37:14;;;;;;;31.90;20.90;;;0.50;99.90;;;;;;5037284;28;20100;-73
2022/01/19 08:39:41;;;;;;;28.03;19.17;;;0.50;99.90;;;;;;5038310;28;20021;-74
2022/01/19 08:42:07;;;;;;;28.60;18.70;;;0.60;99.90;;;;;;5024155;28;20037;-79
2022/01/19 08:44:33;;;;;;;26.37;18.80;;;0.60;99.90;;;;;;5028554;28;20416;-74
2022/01/19 08:46:58;;;;;;;29.10;18.87;;;0.60;99.90;;;;;;5032104;28;20103;-80
2022/01/19 08:49:24;;;;;;;30.47;19.40;;;0.60;99.90;;;;;;5031696;28;20029;-79
2022/01/19 08:51:50;;;;;;;29.13;19.37;;;0.70;99.90;;;;;;5035142;28;20549;-79
2022/01/19 08:54:16;;;;;;;25.87;18.33;;;0.70;99.90;;;;;;5027264;28;20029;-79
2022/01/19 08:56:41;;;;;;;26.47;18.00;;;0.70;99.90;;;;;;5032367;28;20044;-79
2022/01/19 08:59:07;;;;;;;29.50;18.83;;;0.80;99.90;;;;;;5037589;28;20040;-79
2022/01/19 09:01:33;;;;;;;25.83;18.23;;;0.80;99.90;;;;;;5031459;28;20032;-79
2022/01/19 09:03:58;;;;;;;24.00;16.70;;;0.80;99.90;;;;;;5027507;28;20034;-79
2022/01/19 09:06:25;;;;;;;30.57;18.70;;;0.80;99.90;;;;;;5032915;28;20033;-74
2022/01/19 09:08:50;;;;;;;29.17;18.90;;;0.90;99.90;;;;;;5033005;28;20109;-74
2022/01/19 09:11:16;;;;;;;27.17;17.73;;;0.90;99.90;;;;;;5034734;28;20159;-79
2022/01/19 09:13:44;;;;;;;24.00;18.00;;;1.00;99.90;;;;;;5029748;28;20022;-74
2022/01/19 09:16:10;;;;;;;28.20;18.53;;;1.00;99.90;;;;;;5035215;28;20017;-79
2022/01/19 09:18:35;;;;;;;25.23;17.83;;;1.10;99.90;;;;;;5028262;28;20151;-81
2022/01/19 09:21:01;;;;;;;25.10;17.43;;;1.10;99.90;;;;;;5027701;28;20029;-84
2022/01/19 09:23:27;;;;;;;22.57;17.00;;;1.20;99.90;;;;;;5028447;28;20097;-84
2022/01/19 09:25:52;;;;;;;24.47;16.70;;;1.30;99.90;;;;;;5030085;28;20341;-81
2022/01/19 09:28:18;;;;;;;23.13;16.00;;;1.40;99.90;;;;;;5025728;28;20037;-81
2022/01/19 09:30:45;;;;;;;22.80;16.03;;;1.50;99.90;;;;;;5028243;28;20033;-81
2022/01/19 09:33:18;;;;;;;24.27;16.40;;;1.60;99.90;;;;;;5029944;28;20033;-81
2022/01/19 09:36:30;;;;;;;22.03;15.63;;;1.60;99.90;;;;;;5034978;28;20033;-80
2022/01/19 09:38:39;;;;;;;22.97;16.53;;;1.60;99.90;;;;;;5033892;28;20037;-80
2022/01/19 09:41:10;;;;;;;20.57;15.23;;;1.50;99.90;;;;;;5034092;28;20028;-80
2022/01/19 09:43:36;;;;;;;20.27;16.00;;;1.50;99.90;;;;;;5028383;28;20037;-81
2022/01/19 09:46:03;;;;;;;23.77;16.23;;;1.50;99.90;;;;;;5029531;28;20036;-81
2022/01/19 09:48:29;;;;;;;21.37;15.63;;;1.40;99.90;;;;;;5028997;28;20119;-81
2022/01/19 09:50:56;;;;;;;22.83;17.33;;;1.30;99.90;;;;;;5029736;28;20025;-81
2022/01/19 09:53:22;;;;;;;26.13;16.53;;;1.30;99.90;;;;;;5029821;28;20029;-81
2022/01/19 09:55:48;;;;;;;22.93;16.30;;;1.30;99.90;;;;;;5027797;28;20022;-81
2022/01/19 09:58:17;;;;;;;22.70;16.03;;;1.40;99.90;;;;;;5029311;28;20045;-81
2022/01/19 10:00:43;;;;;;;25.40;17.80;;;1.30;99.90;;;;;;5028808;28;20029;-80
2022/01/19 10:03:14;;;;;;;24.43;15.93;;;1.30;99.90;;;;;;5029607;28;20092;-81
2022/01/19 10:06:03;;;;;;;30.63;17.33;;;1.30;99.90;;;;;;5027704;28;20044;-80
2022/01/19 10:08:33;;;;;;;26.87;18.53;;;1.40;99.90;;;;;;5028033;28;20378;-80
2022/01/19 10:11:14;;;;;;;29.53;17.50;;;1.40;99.90;;;;;;5030902;28;20108;-80
2022/01/19 10:16:59;;;;;;;22.93;16.20;;;1.40;99.90;;;;;;5033042;22;20065;-75
2022/01/19 10:19:26;;;;;;;21.83;15.60;;;1.60;99.90;;;;;;5014627;28;20046;-75
2022/01/19 10:22:14;;;;;;;22.90;15.77;;;1.90;99.90;;;;;;5014294;28;20022;-75
2022/01/19 10:24:41;;;;;;;23.97;14.97;;;2.20;99.90;;;;;;5014808;28;20080;-74
2022/01/19 10:27:32;;;;;;;22.40;14.87;;;2.50;99.90;;;;;;5014759;28;20113;-79
2022/01/19 10:30:07;;;;;;;20.97;14.50;;;2.60;99.90;;;;;;5015113;28;20037;-79
2022/01/19 10:32:56;;;;;;;22.70;14.35;;;2.60;99.90;;;;;;5029719;28;20480;-75
2022/01/19 10:35:36;;;;;;;22.77;14.67;;;2.70;99.90;;;;;;5019114;28;20025;-74
2022/01/19 10:38:19;;;;;;;21.23;14.57;;;2.60;99.90;;;;;;5033671;28;20025;-74
2022/01/19 10:41:02;;;;;;;21.27;14.53;;;2.50;99.90;;;;;;5033960;28;20049;-75
2022/01/19 10:43:38;;;;;;;19.60;14.10;;;2.50;99.90;;;;;;5032798;28;20040;-75
2022/01/19 10:46:16;;;;;;;21.20;14.80;;;2.50;99.90;;;;;;5033933;28;20031;-75
2022/01/19 10:48:43;;;;;;;22.90;14.90;;;2.50;99.90;;;;;;5033980;28;20100;-74
2022/01/19 10:51:19;;;;;;;20.37;14.53;;;2.60;99.90;;;;;;5033713;28;20025;-74
2022/01/19 10:53:47;;;;;;;19.23;13.80;;;2.60;99.90;;;;;;5031286;28;20034;-80
2022/01/19 10:56:28;;;;;;;21.93;15.00;;;2.70;99.90;;;;;;5023434;28;20133;-84
2022/01/19 10:58:59;;;;;;;22.60;14.07;;;2.80;99.90;;;;;;5026169;28;20044;-83
2022/01/19 11:01:40;;;;;;;20.43;14.20;;;2.90;99.90;;;;;;5029864;28;20052;-84
2022/01/19 11:04:26;;;;;;;22.53;14.00;;;3.00;99.90;;;;;;5029239;28;20028;-84
2022/01/19 11:06:58;;;;;;;20.03;13.03;;;3.20;99.90;;;;;;5008946;28;20665;-83
2022/01/19 11:09:27;;;;;;;20.53;13.43;;;3.30;99.90;;;;;;5009565;28;20426;-83
2022/01/19 11:11:54;;;;;;;20.07;13.90;;;3.30;99.90;;;;;;5010503;28;20049;-84
2022/01/19 11:14:20;;;;;;;21.73;14.30;;;3.30;99.90;;;;;;5006566;28;20419;-84
2022/01/19 11:16:48;;;;;;;18.93;14.10;;;3.30;99.90;;;;;;4993268;28;20042;-79
2022/01/19 11:19:14;;;;;;;18.20;13.30;;;3.70;99.90;;;;;;4991288;28;20023;-80
2022/01/19 11:22:05;;;;;;;18.83;13.30;;;3.70;99.90;;;;;;5014135;28;20037;-80
2022/01/19 11:25:17;;;;;;;20.10;13.33;;;3.60;99.90;;;;;;5030782;28;20045;-80
2022/01/19 11:27:45;;;;;;;19.23;13.87;;;3.60;99.90;;;;;;5030568;28;20367;-80
2022/01/19 11:30:29;;;;;;;17.93;13.90;;;3.60;99.90;;;;;;5030470;28;20018;-80
2022/01/19 11:33:14;;;;;;;18.47;12.87;;;3.70;99.90;;;;;;5029173;28;20026;-80
2022/01/19 11:35:42;;;;;;;18.47;12.90;;;3.90;99.90;;;;;;5014003;28;20082;-75
2022/01/19 11:38:34;;;;;;;20.43;12.80;;;4.10;99.90;;;;;;5013758;28;20470;-80
2022/01/19 11:41:02;;;;;;;18.47;12.07;;;4.10;99.90;;;;;;5012342;28;20045;-80
2022/01/19 11:43:30;;;;;;;17.80;12.27;;;4.10;99.90;;;;;;5012272;28;20382;-65
2022/01/19 11:45:57;;;;;;;17.60;12.10;;;4.10;99.90;;;;;;5016998;28;20030;-79
2022/01/19 11:48:26;;;;;;;16.53;12.17;;;4.20;99.90;;;;;;5028557;28;20556;-78
2022/01/19 11:50:54;;;;;;;16.97;11.47;;;4.30;99.90;;;;;;5028262;28;20082;-78
2022/01/19 11:53:20;;;;;;;23.10;12.13;;;4.50;99.90;;;;;;5030298;28;20183;-79
2022/01/19 11:56:08;;;;;;;15.63;10.80;;;4.60;99.90;;;;;;5014621;28;20631;-78
2022/01/19 11:58:34;;;;;;;16.33;10.90;;;4.80;99.90;;;;;;5009226;28;20025;-79
2022/01/19 12:01:00;;;;;;;16.60;10.93;;;4.80;99.90;;;;;;5010438;28;20034;-83
2022/01/19 12:03:31;;;;;;;14.33;10.63;;;4.90;99.90;;;;;;5010709;28;20455;-78
2022/01/19 12:05:58;;;;;;;19.40;12.07;;;5.10;99.90;;;;;;5019320;28;20175;-78
2022/01/19 12:08:33;;;;;;;14.50;10.73;;;5.10;99.90;;;;;;5016992;28;20022;-78
2022/01/19 12:11:21;;;;;;;;;;;5.30;99.90;;;;;;5010342;28;20018;-78
2022/01/19 12:14:15;;;;;;;14.53;11.07;;;5.40;99.90;;;;;;5006101;28;19905;-79
2022/01/19 12:16:57;;;;;;;15.93;10.63;;;5.40;99.90;;;;;;5010615;28;20046;-82
2022/01/19 12:19:27;;;;;;;15.17;10.50;;;5.50;99.90;;;;;;5005401;28;20034;-81
2022/01/19 12:22:05;;;;;;;14.17;10.70;;;5.60;99.90;;;;;;5010472;28;20109;-76
2022/01/19 12:24:38;;;;;;;17.00;10.60;;;5.80;99.90;;;;;;5008310;28;20105;-83
2022/01/19 12:27:06;;;;;;;14.53;10.30;;;5.90;99.90;;;;;;5009565;28;20521;-83
2022/01/19 12:29:36;;;;;;;14.90;10.40;;;6.10;99.90;;;;;;5008153;28;20022;-82
2022/01/19 12:32:12;;;;;;;16.27;10.97;;;6.10;99.90;;;;;;5008289;28;20509;-84
2022/01/19 12:34:49;;;;;;;18.07;11.43;;;6.30;99.90;;;;;;5007273;28;20105;-76
2022/01/19 12:37:32;;;;;;;16.50;11.17;;;6.30;99.90;;;;;;5006672;28;20025;-79
2022/01/19 12:40:06;;;;;;;19.33;11.53;;;6.50;99.90;;;;;;4988586;28;20026;-79
2022/01/19 12:42:50;;;;;;;15.70;11.53;;;6.50;99.90;;;;;;4998413;28;20037;-79
2022/01/19 12:45:26;;;;;;;14.17;10.50;;;6.60;99.90;;;;;;4998536;28;20396;-79
2022/01/19 12:47:55;;;;;;;16.97;10.70;;;6.60;99.90;;;;;;5006393;28;20033;-84
2022/01/19 12:50:21;;;;;;;16.63;11.00;;;6.60;99.90;;;;;;5007737;28;20046;-83
2022/01/19 12:52:54;;;;;;;14.73;10.43;;;6.70;99.90;;;;;;5019798;28;20604;-84
2022/01/19 12:55:23;;;;;;;18.17;11.30;;;6.80;99.90;;;;;;5025626;28;20034;-84
2022/01/19 12:57:51;;;;;;;15.13;11.63;;;6.80;99.90;;;;;;5027334;28;20084;-84
2022/01/19 13:00:23;;;;;;;16.40;10.97;;;6.90;99.90;;;;;;5019172;28;20038;-83
2022/01/19 13:02:49;;;;;;;13.93;10.33;;;7.00;99.90;;;;;;5010742;28;20041;-83
2022/01/19 13:05:18;;;;;;;22.33;10.60;;;7.00;99.90;;;;;;5011763;28;20040;-84
2022/01/19 13:07:58;;;;;;;14.30;10.67;;;7.10;99.90;;;;;;5013885;28;20118;-83
2022/01/19 13:13:09;;;;;;;15.23;10.20;;;7.30;99.90;;;;;;5020213;28;20036;-84
2022/01/19 13:15:55;;;;;;;15.33;11.00;;;7.20;99.90;;;;;;5009582;28;20041;-84
2022/01/19 13:18:36;;;;;;;16.57;11.00;;;7.10;99.90;;;;;;5010728;28;20026;-84
2022/01/19 13:21:11;;;;;;;14.40;10.77;;;7.00;99.90;;;;;;5010753;28;20026;-84
2022/01/19 13:23:54;;;;;;;;;;;7.00;99.90;;;;;;5011101;28;20056;-84
2022/01/19 13:26:20;;;;;;;13.40;9.70;;;7.00;99.90;;;;;;5010297;28;20650;-83
2022/01/19 13:28:46;;;;;;;18.73;11.20;;;7.10;99.90;;;;;;5027223;28;20393;-78
2022/01/19 13:31:23;;;;;;;17.03;10.90;;;7.10;99.90;;;;;;5015289;28;20034;-79
2022/01/19 13:33:56;;;;;;;18.03;10.60;;;7.10;99.90;;;;;;4991819;28;20336;-76
2022/01/19 13:36:30;;;;;;;14.90;10.63;;;7.00;99.90;;;;;;4992232;28;20040;-84
2022/01/19 13:38:56;;;;;;;18.27;10.83;;;6.90;99.90;;;;;;4998172;28;20382;-84
2022/01/19 13:41:23;;;;;;;16.50;11.50;;;6.70;99.90;;;;;;5023437;28;20033;-83
2022/01/19 13:43:49;;;;;;;14.70;10.20;;;6.70;99.90;;;;;;5020383;28;20501;-83
2022/01/19 13:46:25;;;;;;;17.50;11.13;;;6.80;99.90;;;;;;5012509;28;20026;-84
2022/01/19 13:48:56;;;;;;;18.93;10.37;;;6.70;99.90;;;;;;5019952;28;20083;-81
2022/01/19 13:51:24;;;;;;;18.27;11.80;;;6.60;99.90;;;;;;5014481;28;20048;-79
2022/01/19 13:53:53;;;;;;;21.50;10.53;;;6.70;99.90;;;;;;5012617;28;20037;-79
2022/01/19 13:56:29;;;;;;;17.77;10.63;;;6.70;99.90;;;;;;5013950;28;20135;-79
2022/01/19 13:59:11;;;;;;;13.97;10.07;;;6.70;99.90;;;;;;5012325;28;20087;-78
2022/01/19 14:01:58;;;;;;;15.53;10.80;;;6.90;99.90;;;;;;5012168;28;20034;-79
2022/01/19 14:04:27;;;;;;;14.87;10.67;;;6.80;99.90;;;;;;4996571;28;20056;-79
2022/01/19 14:07:02;;;;;;;16.03;10.33;;;6.80;99.90;;;;;;5019543;28;20120;-79
2022/01/19 14:09:34;;;;;;;15.27;11.35;;;6.80;99.90;;;;;;5012274;28;20029;-79
2022/01/19 14:12:06;;;;;;;17.60;10.27;;;6.80;99.90;;;;;;5011317;28;20022;-79
2022/01/19 14:14:36;;;;;;;16.30;10.60;;;6.80;99.90;;;;;;5012230;28;20473;-79
2022/01/19 14:17:03;;;;;;;16.97;11.10;;;6.90;99.90;;;;;;5012357;28;20525;-79